CheckWX is a tool to help pilots better visualize weather data.  It is not intended as a substitute for an official pre-flight weather briefing.

16:39:26 UTC

EIDW TAF
Dublin Airport
Dublin, Ireland
TAF AMD EIDW 201257Z 2012/2112 15021G35KT 9999 SCT012 BKN025 TEMPO 2013/2015 -RA BKN012 BECMG 2020/2023 14018G30KT PROB30 TEMPO 2103/2106 5000 -SHRA BKN012 SCT020CB BECMG 2106/2108 13015G25KT TEMPO 2106/2112 4000 SHRA BKN008 SCT020CB

Nov-20@
12:00 UTC

Nov-20 @ 12:00 UTC

Nov-20@
20:00 UTC

Nov-20 @ 20:00 UTC

TAF AMD EIDW 201257Z 2012/2112 15021G35KT 9999 SCT012 BKN025
Wind
  • 150° at 21 KTS
  • {Gusting to 35 KTS
Cloud Levels
  • Scattered at 1,200' AGL
  • Broken at 2,500' AGL

Nov-20@
13:00 UTC

Nov-20 @ 13:00 UTC

Nov-20@
15:00 UTC

Nov-20 @ 15:00 UTC

TEMPO 2013/2015 -RA BKN012

Expired

Conditions
Light Rain
Cloud Levels
  • Broken at 1,200' AGL

Nov-20@
20:00 UTC

Nov-20 @ 20:00 UTC

Nov-21@
06:00 UTC

Nov-21 @ 06:00 UTC

BECMG 2020/2023 14018G30KT

Becoming

Becoming Conditions expected by Wed, Nov 20, 2019 @ 23:00 UTC

Wind
  • 140° at 18 KTS
  • {Gusting to 30 KTS
Cloud Levels
  • Scattered at 1,200' AGL
  • Broken at 2,500' AGL

Nov-21@
03:00 UTC

Nov-21 @ 03:00 UTC

Nov-21@
06:00 UTC

Nov-21 @ 06:00 UTC

PROB30 TEMPO 2103/2106 5000 -SHRA BKN012 SCT020CB

Temporary - 30% Likelihood

Temporary - 30% Likelihood during this time.

Conditions
Light Rain
Cloud Levels
  • Broken at 1,200' AGL
  • Scattered at 2,000' AGL

Nov-21@
06:00 UTC

Nov-21 @ 06:00 UTC

Nov-21@
12:00 UTC

Nov-21 @ 12:00 UTC

BECMG 2106/2108 13015G25KT

Becoming

Becoming Conditions expected by Thu, Nov 21, 2019 @ 08:00 UTC

Wind
  • 130° at 15 KTS
  • {Gusting to 25 KTS
Cloud Levels
  • Scattered at 1,200' AGL
  • Broken at 2,500' AGL

Nov-21@
06:00 UTC

Nov-21 @ 06:00 UTC

Nov-21@
12:00 UTC

Nov-21 @ 12:00 UTC

TEMPO 2106/2112 4000 SHRA BKN008 SCT020CB

Temporary

Temporary Changes expected for less than half the time period

Conditions
Rain
Cloud Levels
  • Broken at 800' AGL
  • Scattered at 2,000' AGL